createdAt,value
2023-02-10T00:01:09.523Z,-3.07
2023-02-10T00:03:36.545Z,-3.13
2023-02-10T00:06:03.983Z,-3.17
2023-02-10T00:08:31.156Z,-3.16
2023-02-10T00:11:03.460Z,-3.18
2023-02-10T00:13:30.520Z,-3.35
2023-02-10T00:16:01.425Z,-3.30
2023-02-10T00:18:28.653Z,-3.28
2023-02-10T00:20:55.734Z,-3.37
2023-02-10T00:23:22.129Z,-3.36
2023-02-10T00:25:48.900Z,-3.43
2023-02-10T00:28:15.505Z,-3.47
2023-02-10T00:30:41.847Z,-3.52
2023-02-10T00:33:08.216Z,-3.42
2023-02-10T00:35:34.954Z,-3.37
2023-02-10T00:38:01.337Z,-3.46
2023-02-10T00:40:27.710Z,-3.47
2023-02-10T00:42:54.062Z,-3.45
2023-02-10T00:45:20.641Z,-3.48
2023-02-10T00:47:47.772Z,-3.51
2023-02-10T00:50:14.129Z,-3.55
2023-02-10T00:52:40.500Z,-3.62
2023-02-10T00:55:07.066Z,-3.63
2023-02-10T00:57:33.491Z,-3.55
2023-02-10T00:59:59.872Z,-3.59
2023-02-10T01:02:26.254Z,-3.61
2023-02-10T01:04:52.599Z,-3.70
2023-02-10T01:07:18.942Z,-3.82
2023-02-10T01:09:45.281Z,-3.68
2023-02-10T01:12:11.735Z,-3.67
2023-02-10T01:14:38.162Z,-3.71
2023-02-10T01:17:04.508Z,-3.50
2023-02-10T01:19:30.883Z,-3.52
2023-02-10T01:21:57.230Z,-3.47
2023-02-10T01:24:23.628Z,-3.61
2023-02-10T01:26:50.510Z,-3.62
2023-02-10T01:29:16.875Z,-3.56
2023-02-10T01:31:43.369Z,-3.56
2023-02-10T01:34:10.858Z,-3.63
2023-02-10T01:36:37.495Z,-3.67
2023-02-10T01:39:03.963Z,-3.58
2023-02-10T01:41:30.327Z,-3.60
2023-02-10T01:44:01.576Z,-3.63
2023-02-10T01:46:30.506Z,-3.72
2023-02-10T01:49:00.329Z,-3.72
2023-02-10T01:51:37.869Z,-3.70
2023-02-10T01:54:06.122Z,-3.58
2023-02-10T01:56:33.455Z,-3.56
2023-02-10T01:58:59.882Z,-3.44
2023-02-10T02:01:26.262Z,-3.31
2023-02-10T02:03:54.766Z,-3.24
2023-02-10T02:06:21.231Z,-3.22
2023-02-10T02:08:47.697Z,-3.04
2023-02-10T02:11:22.863Z,-3.08
2023-02-10T02:14:07.136Z,-2.94
2023-02-10T02:16:53.932Z,-2.89
2023-02-10T02:19:37.129Z,-2.85
2023-02-10T02:22:20.728Z,-2.79
2023-02-10T02:24:58.906Z,-2.71
2023-02-10T02:28:00.648Z,-2.55
2023-02-10T02:30:54.112Z,-2.04
2023-02-10T02:33:33.962Z,-2.00
2023-02-10T02:36:24.695Z,-1.61
2023-02-10T02:38:51.101Z,-1.45
2023-02-10T02:41:24.860Z,-1.46
2023-02-10T02:43:51.565Z,-1.34
2023-02-10T02:46:45.397Z,-1.32
2023-02-10T02:49:22.201Z,-1.24
2023-02-10T02:52:01.858Z,-0.98
2023-02-10T02:54:34.707Z,-0.95
2023-02-10T02:57:19.198Z,-0.84
2023-02-10T02:59:59.642Z,-0.86
2023-02-10T03:02:30.000Z,-0.79
2023-02-10T03:04:56.986Z,-0.80
2023-02-10T03:07:23.371Z,-1.04
2023-02-10T03:09:49.757Z,-1.07
2023-02-10T03:12:16.284Z,-1.18
2023-02-10T03:14:42.658Z,-1.16
2023-02-10T03:17:09.096Z,-1.20
2023-02-10T03:19:35.973Z,-1.26
2023-02-10T03:22:02.459Z,-1.24
2023-02-10T03:24:28.817Z,-0.93
2023-02-10T03:26:55.241Z,-0.63
2023-02-10T03:29:21.601Z,-0.51
2023-02-10T03:31:48.038Z,-0.51
2023-02-10T03:34:14.502Z,-0.32
2023-02-10T03:36:41.212Z,-0.32
2023-02-10T03:39:07.570Z,-0.26
2023-02-10T03:41:34.012Z,-0.28
2023-02-10T03:44:00.486Z,-0.31
2023-02-10T03:46:26.962Z,-0.33
2023-02-10T03:48:53.342Z,-0.39
2023-02-10T03:51:19.766Z,-0.40
2023-02-10T03:53:46.300Z,-0.39
2023-02-10T03:56:12.768Z,-0.52
2023-02-10T03:58:39.143Z,-0.63
2023-02-10T04:01:14.734Z,-0.58
2023-02-10T04:03:41.226Z,-0.61
2023-02-10T04:06:08.738Z,-0.64
2023-02-10T04:08:35.608Z,-0.63
2023-02-10T04:11:02.205Z,-0.72
2023-02-10T04:13:28.683Z,-0.64
2023-02-10T04:16:07.337Z,-0.73
2023-02-10T04:18:34.284Z,-0.64
2023-02-10T04:21:02.924Z,-0.63
2023-02-10T04:23:30.366Z,-0.71
2023-02-10T04:25:57.007Z,-0.70
2023-02-10T04:28:23.372Z,-0.75
2023-02-10T04:30:54.824Z,-0.72
2023-02-10T04:33:22.387Z,-0.73
2023-02-10T04:35:49.634Z,-0.72
2023-02-10T04:38:16.722Z,-0.69
2023-02-10T04:40:43.854Z,-0.78
2023-02-10T04:43:14.073Z,-0.72
2023-02-10T04:45:41.128Z,-0.74
2023-02-10T04:48:07.574Z,-0.73
2023-02-10T04:50:34.100Z,-0.64
2023-02-10T04:53:00.523Z,-0.75
2023-02-10T04:55:26.971Z,-0.62
2023-02-10T04:57:53.363Z,-0.85
2023-02-10T05:00:20.323Z,-0.73
2023-02-10T05:02:46.698Z,-0.69
2023-02-10T05:05:13.583Z,-0.79
2023-02-10T05:07:39.957Z,-0.72
2023-02-10T05:10:06.659Z,-0.64
2023-02-10T05:12:33.164Z,-0.64
2023-02-10T05:15:00.292Z,-0.58
2023-02-10T05:17:26.672Z,-0.64
2023-02-10T05:19:53.080Z,-0.68
2023-02-10T05:22:19.447Z,-0.62
2023-02-10T05:24:45.804Z,-0.73
2023-02-10T05:27:12.188Z,-0.64
2023-02-10T05:29:38.573Z,-0.72
2023-02-10T05:32:05.130Z,-0.67
2023-02-10T05:34:31.522Z,-0.62
2023-02-10T05:36:57.970Z,-0.46
2023-02-10T05:39:24.353Z,-0.55
2023-02-10T05:41:56.608Z,-0.53
2023-02-10T05:44:24.131Z,-0.49
2023-02-10T05:46:51.378Z,-0.53
2023-02-10T05:49:18.311Z,-0.61
2023-02-10T05:51:45.166Z,-0.62
2023-02-10T05:54:11.690Z,-0.57
2023-02-10T05:56:38.371Z,-0.55
2023-02-10T05:59:05.092Z,-0.65
2023-02-10T06:01:32.294Z,-0.57
2023-02-10T06:03:58.833Z,-0.72
2023-02-10T06:06:25.579Z,-0.59
2023-02-10T06:08:51.943Z,-0.76
2023-02-10T06:11:18.295Z,-0.72
2023-02-10T06:13:44.647Z,-0.83
2023-02-10T06:16:12.302Z,-0.96
2023-02-10T06:18:39.064Z,-0.82
2023-02-10T06:21:05.620Z,-0.92
2023-02-10T06:23:31.992Z,-1.08
2023-02-10T06:25:59.885Z,-1.03
2023-02-10T06:28:27.090Z,-1.11
2023-02-10T06:30:53.921Z,-1.18
2023-02-10T06:33:20.518Z,-1.13
2023-02-10T06:35:47.667Z,-1.20
2023-02-10T06:38:14.310Z,-1.28
2023-02-10T06:40:40.733Z,-1.08
2023-02-10T06:43:07.125Z,-1.14
2023-02-10T06:45:34.221Z,-1.15
2023-02-10T06:48:00.597Z,-1.22
2023-02-10T06:50:27.078Z,-1.12
2023-02-10T06:52:53.615Z,-1.18
2023-02-10T06:55:20.021Z,-1.15
2023-02-10T06:57:46.473Z,-1.08
2023-02-10T07:00:15.620Z,-1.04
2023-02-10T07:02:42.156Z,-0.98
2023-02-10T07:05:10.938Z,-1.00
2023-02-10T07:07:38.096Z,-0.73
2023-02-10T07:10:05.387Z,-0.73
2023-02-10T07:12:31.839Z,-0.61
2023-02-10T07:14:58.244Z,-0.71
2023-02-10T07:17:24.662Z,-0.79
2023-02-10T07:19:51.015Z,-0.73
2023-02-10T07:22:17.388Z,-0.73
2023-02-10T07:24:43.788Z,-0.81
2023-02-10T07:27:10.161Z,-0.79
2023-02-10T07:29:36.517Z,-0.70
2023-02-10T07:32:03.024Z,-0.71
2023-02-10T07:34:31.405Z,-0.64
2023-02-10T07:36:58.163Z,-0.62
2023-02-10T07:39:25.085Z,-0.56
2023-02-10T07:41:51.708Z,-0.63
2023-02-10T07:44:18.339Z,-0.50
2023-02-10T07:46:44.790Z,-0.48
2023-02-10T07:49:11.253Z,-0.44
2023-02-10T07:51:37.867Z,-0.35
2023-02-10T07:54:04.715Z,-0.33
2023-02-10T07:56:31.051Z,-0.40
2023-02-10T07:58:57.495Z,-0.27
2023-02-10T08:01:23.924Z,-0.23
2023-02-10T08:03:50.348Z,-0.18
2023-02-10T08:06:24.922Z,-0.15
2023-02-10T08:08:51.476Z,-0.07
2023-02-10T08:11:18.634Z,0.50
2023-02-10T08:13:46.341Z,0.68
2023-02-10T08:16:12.849Z,0.75
2023-02-10T08:18:39.886Z,0.63
2023-02-10T08:21:06.922Z,0.66
2023-02-10T08:23:33.558Z,0.82
2023-02-10T08:26:03.916Z,0.96
2023-02-10T08:28:30.499Z,0.85
2023-02-10T08:31:01.071Z,0.80
2023-02-10T08:33:30.248Z,0.70
2023-02-10T08:35:58.669Z,0.73
2023-02-10T08:38:25.064Z,0.87
2023-02-10T08:40:55.948Z,0.84
2023-02-10T08:43:22.322Z,0.93
2023-02-10T08:45:49.067Z,0.99
2023-02-10T08:48:15.835Z,1.04
2023-02-10T08:50:42.196Z,1.03
2023-02-10T08:53:08.634Z,1.10
2023-02-10T08:55:34.998Z,1.17
2023-02-10T08:58:01.355Z,1.26
2023-02-10T09:00:27.737Z,1.29
2023-02-10T09:02:54.278Z,1.34
2023-02-10T09:05:21.169Z,1.30
2023-02-10T09:07:47.819Z,1.40
2023-02-10T09:10:15.533Z,1.45
2023-02-10T09:12:42.696Z,1.45
2023-02-10T09:15:10.282Z,1.41
2023-02-10T09:17:36.693Z,1.48
2023-02-10T09:20:04.197Z,1.44
2023-02-10T09:22:30.557Z,1.53
2023-02-10T09:24:57.638Z,1.60
2023-02-10T09:27:24.041Z,1.67
2023-02-10T09:29:50.386Z,1.71
2023-02-10T09:32:16.754Z,1.86
2023-02-10T09:34:45.879Z,1.85
2023-02-10T09:37:12.236Z,1.89
2023-02-10T09:39:39.623Z,1.97
2023-02-10T09:42:30.781Z,2.04
2023-02-10T09:45:06.335Z,2.27
2023-02-10T09:47:42.737Z,2.23
2023-02-10T09:50:14.909Z,2.33
2023-02-10T09:53:04.263Z,2.47
2023-02-10T09:55:37.790Z,2.54
2023-02-10T09:58:18.025Z,2.48
2023-02-10T10:00:46.354Z,2.44
2023-02-10T10:03:19.417Z,2.51
2023-02-10T10:05:56.548Z,2.62
2023-02-10T10:08:31.429Z,2.51
2023-02-10T10:11:03.839Z,2.49
2023-02-10T10:13:31.018Z,2.51
2023-02-10T10:16:09.014Z,2.50
2023-02-10T10:19:17.332Z,2.46
2023-02-10T10:22:08.193Z,2.40
2023-02-10T10:24:43.549Z,2.35
2023-02-10T10:27:39.044Z,2.21
2023-02-10T10:30:17.283Z,2.15
2023-02-10T10:32:49.705Z,2.07
2023-02-10T10:35:25.614Z,2.02
2023-02-10T10:37:52.033Z,2.11
2023-02-10T10:40:28.459Z,2.12
2023-02-10T10:43:00.715Z,2.21
2023-02-10T10:45:35.092Z,2.25
2023-02-10T10:48:16.432Z,2.29
2023-02-10T10:50:43.176Z,2.29
2023-02-10T10:53:19.865Z,2.37
2023-02-10T10:55:52.320Z,2.52
2023-02-10T10:58:25.705Z,2.57
2023-02-10T11:00:54.209Z,2.60
2023-02-10T11:03:20.797Z,2.63
2023-02-10T11:06:17.553Z,2.80
2023-02-10T11:08:54.359Z,2.84
2023-02-10T11:11:38.369Z,2.92
2023-02-10T11:14:23.078Z,3.11
2023-02-10T11:16:53.151Z,3.23
2023-02-10T11:19:26.089Z,3.22
2023-02-10T11:21:53.287Z,3.22
2023-02-10T11:24:29.536Z,3.15
2023-02-10T11:27:01.568Z,3.03
2023-02-10T11:29:34.187Z,2.99
2023-02-10T11:32:01.362Z,3.05
2023-02-10T11:34:35.119Z,3.29
2023-02-10T11:37:13.025Z,3.26
2023-02-10T11:39:44.263Z,3.31
2023-02-10T11:42:26.957Z,3.15
2023-02-10T11:44:56.459Z,3.13
2023-02-10T11:47:22.925Z,3.05
2023-02-10T11:49:53.133Z,2.93
2023-02-10T11:52:23.189Z,2.95
2023-02-10T11:54:51.891Z,2.99
2023-02-10T11:57:58.350Z,3.12
2023-02-10T12:00:50.105Z,3.22
2023-02-10T12:03:41.796Z,3.57
2023-02-10T12:06:25.814Z,3.53
2023-02-10T12:09:26.466Z,3.57
2023-02-10T12:12:14.043Z,3.68
2023-02-10T12:14:54.369Z,3.84
2023-02-10T12:17:36.658Z,3.79
2023-02-10T12:20:37.312Z,3.86
2023-02-10T12:23:25.582Z,3.91
2023-02-10T12:26:19.126Z,3.71
2023-02-10T12:29:09.801Z,3.81
2023-02-10T12:32:01.756Z,3.74
2023-02-10T12:34:55.986Z,3.80
2023-02-10T12:37:52.214Z,3.81
2023-02-10T12:40:34.959Z,3.63
2023-02-10T12:43:16.902Z,3.43
2023-02-10T12:46:00.559Z,3.34
2023-02-10T12:48:43.188Z,3.36
2023-02-10T12:51:29.621Z,3.34
2023-02-10T12:54:10.297Z,3.18
2023-02-10T12:57:05.072Z,3.28
2023-02-10T12:59:39.095Z,3.38
2023-02-10T13:02:41.081Z,3.52
2023-02-10T13:05:16.144Z,3.44
2023-02-10T13:08:03.730Z,3.38
2023-02-10T13:10:47.005Z,3.52
2023-02-10T13:13:32.687Z,3.73
2023-02-10T13:16:13.018Z,3.79
2023-02-10T13:18:58.092Z,3.86
2023-02-10T13:21:41.608Z,3.74
2023-02-10T13:24:36.865Z,3.80
2023-02-10T13:27:41.617Z,3.99
2023-02-10T13:30:37.345Z,4.13
2023-02-10T13:33:16.651Z,4.35
2023-02-10T13:35:44.514Z,4.29
2023-02-10T13:38:16.564Z,4.40
2023-02-10T13:40:54.800Z,4.30
2023-02-10T13:43:32.790Z,4.29
2023-02-10T13:46:01.172Z,4.34
2023-02-10T13:48:31.150Z,4.45
2023-02-10T13:51:01.450Z,4.23
2023-02-10T13:53:30.785Z,4.39
2023-02-10T13:56:26.127Z,4.36
2023-02-10T13:58:56.170Z,4.25
2023-02-10T14:01:40.816Z,4.26
2023-02-10T14:04:19.414Z,4.18
2023-02-10T14:06:50.629Z,4.15
2023-02-10T14:09:30.637Z,3.99
2023-02-10T14:11:59.697Z,3.96
2023-02-10T14:14:37.967Z,3.89
2023-02-10T14:17:13.798Z,3.89
2023-02-10T14:19:43.160Z,3.93
2023-02-10T14:22:38.800Z,3.90
2023-02-10T14:25:18.747Z,3.99
2023-02-10T14:27:50.747Z,4.05
2023-02-10T14:30:23.876Z,4.00
2023-02-10T14:32:51.882Z,3.99
2023-02-10T14:35:29.040Z,3.92
2023-02-10T14:37:58.803Z,3.83
2023-02-10T14:40:28.658Z,3.75
2023-02-10T14:42:55.143Z,3.68
2023-02-10T14:45:28.858Z,3.58
2023-02-10T14:47:58.278Z,3.54
2023-02-10T14:50:29.700Z,3.60
2023-02-10T14:52:56.763Z,3.54
2023-02-10T14:55:27.423Z,3.46
2023-02-10T14:57:57.744Z,3.47
2023-02-10T15:00:24.217Z,3.37
2023-02-10T15:02:58.347Z,3.40
2023-02-10T15:05:25.210Z,3.36
2023-02-10T15:07:56.286Z,3.24
2023-02-10T15:10:33.810Z,3.09
2023-02-10T15:13:01.388Z,3.09
2023-02-10T15:15:32.364Z,3.27
2023-02-10T15:18:05.805Z,3.28
2023-02-10T15:20:33.273Z,3.22
2023-02-10T15:22:59.576Z,3.25
2023-02-10T15:25:34.077Z,3.08
2023-02-10T15:28:26.150Z,2.93
2023-02-10T15:31:19.077Z,2.88
2023-02-10T15:33:53.147Z,2.83
2023-02-10T15:36:25.690Z,2.74
2023-02-10T15:38:56.539Z,2.76
2023-02-10T15:41:34.614Z,2.52
2023-02-10T15:44:03.334Z,2.49
2023-02-10T15:46:31.330Z,2.57
2023-02-10T15:49:09.212Z,2.55
2023-02-10T15:51:40.793Z,2.42
2023-02-10T15:54:13.094Z,2.36
2023-02-10T15:56:39.450Z,2.34
2023-02-10T15:59:17.204Z,2.21
2023-02-10T16:01:43.832Z,2.10
2023-02-10T16:04:10.217Z,1.93
2023-02-10T16:06:38.190Z,1.94
2023-02-10T16:09:05.209Z,1.82
2023-02-10T16:11:31.876Z,1.68
2023-02-10T16:13:58.255Z,1.67
2023-02-10T16:16:24.864Z,1.67
2023-02-10T16:18:51.413Z,1.49
2023-02-10T16:21:17.795Z,1.43
2023-02-10T16:23:44.257Z,1.43
2023-02-10T16:26:24.735Z,1.29
2023-02-10T16:28:51.696Z,1.27
2023-02-10T16:31:20.188Z,1.19
2023-02-10T16:33:46.683Z,1.10
2023-02-10T16:36:15.501Z,0.93
2023-02-10T16:38:42.661Z,0.76
2023-02-10T16:41:09.373Z,0.80
2023-02-10T16:43:36.159Z,0.68
2023-02-10T16:46:02.834Z,0.63
2023-02-10T16:48:29.247Z,0.54
2023-02-10T16:50:55.619Z,0.42
2023-02-10T16:53:21.987Z,0.33
2023-02-10T16:55:50.291Z,0.36
2023-02-10T16:58:18.030Z,0.23
2023-02-10T17:00:44.966Z,0.17
2023-02-10T17:03:11.676Z,-0.02
2023-02-10T17:05:38.496Z,0.03
2023-02-10T17:08:05.575Z,-0.15
2023-02-10T17:10:33.339Z,-0.17
2023-02-10T17:12:59.829Z,-0.22
2023-02-10T17:15:26.757Z,-0.31
2023-02-10T17:17:53.119Z,-0.42
2023-02-10T17:20:24.054Z,-0.38
2023-02-10T17:22:52.548Z,-0.44
2023-02-10T17:25:19.079Z,-0.44
2023-02-10T17:27:45.624Z,-0.45
2023-02-10T17:30:17.002Z,-0.48
2023-02-10T17:32:45.572Z,-0.57
2023-02-10T17:35:14.547Z,-0.62
2023-02-10T17:37:43.391Z,-0.68
2023-02-10T17:40:23.197Z,-0.63
2023-02-10T17:42:49.818Z,-0.56
2023-02-10T17:45:17.684Z,-0.67
2023-02-10T17:47:47.010Z,-0.92
2023-02-10T17:50:15.552Z,-0.82
2023-02-10T17:52:41.944Z,-0.88
2023-02-10T17:55:20.925Z,-0.89
2023-02-10T17:57:48.325Z,-0.95
2023-02-10T18:00:15.415Z,-1.01
2023-02-10T18:02:41.838Z,-1.04
2023-02-10T18:05:09.707Z,-0.95
2023-02-10T18:07:36.327Z,-0.99
2023-02-10T18:10:03.919Z,-0.96
2023-02-10T18:12:30.328Z,-0.96
2023-02-10T18:14:56.773Z,-0.98
2023-02-10T18:17:23.156Z,-0.98
2023-02-10T18:19:49.604Z,-1.08
2023-02-10T18:22:16.085Z,-1.03
2023-02-10T18:24:42.497Z,-1.09
2023-02-10T18:27:08.860Z,-1.07
2023-02-10T18:29:35.239Z,-1.10
2023-02-10T18:32:01.655Z,-1.09
2023-02-10T18:34:28.133Z,-1.25
2023-02-10T18:36:54.793Z,-0.99
2023-02-10T18:39:21.740Z,-1.01
2023-02-10T18:41:48.190Z,-1.05
2023-02-10T18:44:14.568Z,-1.07
2023-02-10T18:46:41.107Z,-1.19
2023-02-10T18:49:07.502Z,-1.19
2023-02-10T18:51:33.879Z,-1.10
2023-02-10T18:54:00.299Z,-1.09
2023-02-10T18:56:26.677Z,-1.12
2023-02-10T18:58:53.117Z,-1.23
2023-02-10T19:01:21.970Z,-1.11
2023-02-10T19:03:49.004Z,-1.09
2023-02-10T19:06:16.685Z,-1.19
2023-02-10T19:08:43.955Z,-1.03
2023-02-10T19:11:12.751Z,-1.06
2023-02-10T19:13:39.427Z,-1.07
2023-02-10T19:16:06.486Z,-0.99
2023-02-10T19:18:33.183Z,-1.04
2023-02-10T19:20:59.768Z,-0.99
2023-02-10T19:23:26.883Z,-0.95
2023-02-10T19:25:53.670Z,-1.00
2023-02-10T19:28:20.154Z,-1.03
2023-02-10T19:30:46.794Z,-1.07
2023-02-10T19:33:13.326Z,-1.02
2023-02-10T19:35:46.756Z,-1.03
2023-02-10T19:38:13.260Z,-1.01
2023-02-10T19:40:39.651Z,-1.01
2023-02-10T19:43:06.003Z,-1.12
2023-02-10T19:45:32.388Z,-1.00
2023-02-10T19:47:58.773Z,-1.10
2023-02-10T19:50:25.180Z,-1.17
2023-02-10T19:52:51.537Z,-1.20
2023-02-10T19:55:18.164Z,-1.19
2023-02-10T19:57:46.240Z,-1.25
2023-02-10T20:00:14.191Z,-1.19
2023-02-10T20:02:40.938Z,-1.18
2023-02-10T20:05:07.580Z,-1.28
2023-02-10T20:07:34.774Z,-1.33
2023-02-10T20:10:01.184Z,-1.35
2023-02-10T20:12:28.175Z,-1.30
2023-02-10T20:14:54.586Z,-1.28
2023-02-10T20:17:20.961Z,-1.30
2023-02-10T20:19:47.323Z,-1.34
2023-02-10T20:22:13.671Z,-1.25
2023-02-10T20:24:40.047Z,-1.37
2023-02-10T20:27:06.404Z,-1.42
2023-02-10T20:29:33.279Z,-1.35
2023-02-10T20:31:59.763Z,-1.42
2023-02-10T20:34:26.236Z,-1.41
2023-02-10T20:36:52.616Z,-1.46
2023-02-10T20:39:18.965Z,-1.58
2023-02-10T20:41:45.871Z,-1.49
2023-02-10T20:44:12.293Z,-1.41
2023-02-10T20:46:39.605Z,-1.42
2023-02-10T20:49:06.243Z,-1.46
2023-02-10T20:51:33.628Z,-1.36
2023-02-10T20:54:00.045Z,-1.39
2023-02-10T20:56:26.593Z,-1.28
2023-02-10T20:58:53.100Z,-1.29
2023-02-10T21:01:19.623Z,-1.47
2023-02-10T21:03:46.630Z,-1.33
2023-02-10T21:06:15.126Z,-1.38
2023-02-10T21:08:42.624Z,-1.42
2023-02-10T21:11:11.343Z,-1.48
2023-02-10T21:13:39.139Z,-1.46
2023-02-10T21:16:07.040Z,-1.51
2023-02-10T21:18:33.714Z,-1.51
2023-02-10T21:21:02.633Z,-1.46
2023-02-10T21:23:29.691Z,-1.37
2023-02-10T21:25:56.438Z,-1.40
2023-02-10T21:28:23.106Z,-1.47
2023-02-10T21:30:49.566Z,-1.39
2023-02-10T21:33:17.916Z,-1.38
2023-02-10T21:35:49.934Z,-1.22
2023-02-10T21:38:17.655Z,-1.19
2023-02-10T21:40:44.154Z,-1.19
2023-02-10T21:43:10.621Z,-1.16
2023-02-10T21:45:37.150Z,-1.12
2023-02-10T21:48:05.457Z,-1.16
2023-02-10T21:50:32.165Z,-1.05
2023-02-10T21:52:58.546Z,-0.97
2023-02-10T21:55:24.924Z,-1.00
2023-02-10T21:57:51.298Z,-0.88
2023-02-10T22:00:17.764Z,-0.75
2023-02-10T22:02:44.224Z,-0.71
2023-02-10T22:05:10.672Z,-0.79
2023-02-10T22:07:37.487Z,-0.64
2023-02-10T22:10:05.574Z,-0.43
2023-02-10T22:12:32.746Z,-0.53
2023-02-10T22:14:59.198Z,-0.58
2023-02-10T22:17:25.623Z,-0.53
2023-02-10T22:19:51.974Z,-0.64
2023-02-10T22:22:18.363Z,-0.53
2023-02-10T22:24:44.721Z,-0.52
2023-02-10T22:27:11.111Z,-0.45
2023-02-10T22:29:37.567Z,-0.52
2023-02-10T22:32:04.726Z,-0.41
2023-02-10T22:34:31.338Z,-0.42
2023-02-10T22:36:58.258Z,-0.38
2023-02-10T22:39:24.835Z,-0.43
2023-02-10T22:41:52.128Z,-0.37
2023-02-10T22:44:18.522Z,-0.29
2023-02-10T22:46:45.040Z,-0.20
2023-02-10T22:49:13.774Z,-0.27
2023-02-10T22:51:41.678Z,-0.27
2023-02-10T22:54:11.202Z,-0.07
2023-02-10T22:56:39.522Z,0.01
2023-02-10T22:59:06.657Z,0.06
2023-02-10T23:01:37.458Z,0.19
2023-02-10T23:04:05.599Z,0.28
2023-02-10T23:06:32.048Z,0.13
2023-02-10T23:08:58.568Z,0.16
2023-02-10T23:11:33.309Z,0.25
2023-02-10T23:14:00.619Z,0.17
2023-02-10T23:16:28.415Z,0.21
2023-02-10T23:18:55.048Z,0.22
2023-02-10T23:21:23.844Z,0.11
2023-02-10T23:23:50.714Z,0.15
2023-02-10T23:26:25.533Z,0.41
2023-02-10T23:28:52.151Z,0.28
2023-02-10T23:31:22.530Z,0.36
2023-02-10T23:33:51.383Z,0.22
2023-02-10T23:36:18.103Z,0.27
2023-02-10T23:38:44.522Z,0.32
2023-02-10T23:41:10.934Z,0.35
2023-02-10T23:43:37.655Z,0.49
2023-02-10T23:46:06.230Z,0.59
2023-02-10T23:48:34.811Z,0.45
2023-02-10T23:51:13.895Z,0.49
2023-02-10T23:53:40.911Z,0.53
2023-02-10T23:56:07.882Z,0.45
2023-02-10T23:58:34.966Z,0.48
